Time;durP1;ratioP1;P1;durP2;ratioP2;P2;SDS_P1;SDS_P2;PMS_P1;PMS_P2;Temp;Humidity;BMP_temperature;BMP_pressure;BME280_temperature;BME280_humidity;BME280_pressure;Samples;Min_cycle;Max_cycle;Signal;HPM_P1;HPM_P2
2023/03/27 00:00:59;;;;;;;30.80;14.40;;;;;;;-147.16;73.79;76015.50;5044761;23;20212;-68
2023/03/27 00:03:27;;;;;;;29.60;14.40;;;;;;;-147.16;73.77;76033.72;5031535;23;25484;-70
2023/03/27 00:06:03;;;;;;;33.33;15.07;;;;;;;-147.16;74.01;76039.81;5066624;23;22795;-67
2023/03/27 00:08:30;;;;;;;30.27;14.83;;;;;;;-147.16;73.67;76037.78;5058927;23;21962;-68
2023/03/27 00:10:57;;;;;;;31.97;13.60;;;;;;;-147.16;73.81;76037.78;5044036;23;20267;-69
2023/03/27 00:13:23;;;;;;;37.07;14.40;;;;;;;-147.16;74.04;76056.00;5056841;23;20212;-68
2023/03/27 00:15:52;;;;;;;33.57;15.47;;;;;;;-147.16;74.49;76060.03;5063383;23;20264;-71
2023/03/27 00:18:19;;;;;;;39.00;16.30;;;;;;;-147.16;75.08;76068.16;5066138;23;20223;-69
2023/03/27 00:20:46;;;;;;;31.47;15.03;;;;;;;-147.16;75.45;76072.19;5054734;23;20201;-69
2023/03/27 00:23:12;;;;;;;32.60;16.30;;;;;;;-147.16;75.43;76078.25;5063025;23;21321;-68
2023/03/27 00:25:39;;;;;;;33.93;14.87;;;;;;;-147.16;75.27;76080.28;5056815;23;20208;-68
2023/03/27 00:28:07;;;;;;;28.07;15.07;;;;;;;-147.16;75.69;76088.38;5041146;23;20211;-69
2023/03/27 00:30:34;;;;;;;42.63;17.63;;;;;;;-147.16;75.84;76092.44;5046092;23;20216;-69
2023/03/27 00:33:01;;;;;;;36.40;16.40;;;;;;;-147.16;76.27;76098.50;5047889;23;20252;-68
2023/03/27 00:35:28;;;;;;;34.60;16.00;;;;;;;-147.16;76.11;76072.19;5048372;23;20424;-68
2023/03/27 00:37:56;;;;;;;35.27;17.37;;;;;;;-147.16;75.92;76088.38;5041574;23;20280;-69
2023/03/27 00:40:22;;;;;;;36.80;18.13;;;;;;;-147.16;76.00;76076.25;5051268;23;20284;-68
2023/03/27 00:42:50;;;;;;;34.83;17.30;;;;;;;-147.16;75.71;76084.34;5052898;23;21855;-68
2023/03/27 00:45:22;;;;;;;33.40;17.20;;;;;;;-147.16;76.20;76074.22;5044428;23;20300;-68
2023/03/27 00:47:59;;;;;;;31.77;15.40;;;;;;;-147.16;76.17;76064.09;5030999;23;20211;-66
2023/03/27 00:50:33;;;;;;;33.30;14.87;;;;;;;-147.16;76.59;76088.38;5043194;23;20223;-67
2023/03/27 00:53:05;;;;;;;36.33;15.87;;;;;;;-147.16;76.58;76086.38;5033460;23;22899;-69
2023/03/27 00:55:35;;;;;;;33.40;15.33;;;;;;;-147.16;76.70;76092.44;5049845;23;20208;-66
2023/03/27 00:58:07;;;;;;;31.80;14.63;;;;;;;-147.16;77.12;76080.28;5044421;23;20657;-67
2023/03/27 01:00:33;;;;;;;31.67;14.90;;;;;;;-147.16;76.81;76072.19;5054028;23;20332;-67
2023/03/27 01:03:04;;;;;;;30.33;14.77;;;;;;;-147.16;77.08;76076.25;5043054;23;20930;-67
2023/03/27 01:05:31;;;;;;;34.57;15.33;;;;;;;-147.16;77.10;76090.41;5053345;23;20291;-67
2023/03/27 01:07:58;;;;;;;28.90;14.47;;;;;;;-147.16;77.27;76090.41;5044426;23;20282;-67
2023/03/27 01:10:47;;;;;;;28.57;14.53;;;;;;;-147.16;77.72;76078.25;5039257;23;22569;-67
2023/03/27 01:13:33;;;;;;;29.43;14.23;;;;;;;-147.16;77.51;76094.47;5031941;23;20204;-66
2023/03/27 01:16:05;;;;;;;29.33;13.90;;;;;;;-147.16;77.65;76086.38;5059594;23;20255;-69
2023/03/27 01:18:38;;;;;;;32.20;13.43;;;;;;;-147.16;77.81;76098.50;5046413;23;20447;-69
2023/03/27 01:21:14;;;;;;;31.73;14.10;;;;;;;-147.16;77.68;76100.53;5046920;23;20291;-68
2023/03/27 01:23:58;;;;;;;26.83;13.07;;;;;;;-147.16;77.75;76100.53;5042385;23;20707;-66
2023/03/27 01:26:45;;;;;;;33.20;13.77;;;;;;;-147.16;77.89;76100.53;5066539;23;20274;-67
2023/03/27 01:29:49;;;;;;;28.30;12.97;;;;;;;-147.16;78.23;76098.50;5046781;23;20217;-70
2023/03/27 01:32:50;;;;;;;28.97;12.60;;;;;;;-147.16;77.97;76098.50;5061591;23;22230;-67
2023/03/27 01:35:22;;;;;;;31.53;14.27;;;;;;;-147.16;78.40;76104.56;5027978;23;20440;-67
2023/03/27 01:38:05;;;;;;;28.07;12.10;;;;;;;-147.16;78.49;76094.47;5052097;23;21156;-68
2023/03/27 01:40:46;;;;;;;28.27;11.90;;;;;;;-147.16;78.15;76100.53;5043859;23;20396;-67
2023/03/27 01:43:27;;;;;;;29.87;13.13;;;;;;;-147.16;78.56;76114.69;5044476;23;20437;-68
2023/03/27 01:45:59;;;;;;;26.27;12.43;;;;;;;-147.16;78.57;76122.78;5033155;23;20609;-68
2023/03/27 01:48:43;;;;;;;31.30;13.27;;;;;;;-147.16;78.30;76124.81;5027943;23;20208;-67
2023/03/27 01:51:17;;;;;;;24.53;11.50;;;;;;;-147.16;78.72;76147.09;5048353;23;20243;-68
2023/03/27 01:54:20;;;;;;;31.03;13.27;;;;;;;-147.16;78.53;76155.19;5044343;23;21220;-68
2023/03/27 01:56:54;;;;;;;26.43;12.40;;;;;;;-147.16;78.51;76143.03;5024700;23;20216;-69
2023/03/27 01:59:25;;;;;;;30.00;13.93;;;;;;;-147.16;78.23;76132.91;5041725;23;20212;-69
2023/03/27 02:01:58;;;;;;;29.00;14.00;;;;;;;-147.16;78.21;76141.00;5058536;23;23586;-66
2023/03/27 02:04:29;;;;;;;32.90;15.67;;;;;;;-147.16;79.01;76153.16;5023732;23;20212;-67
2023/03/27 02:06:59;;;;;;;33.63;15.13;;;;;;;-147.16;79.18;76169.34;5052499;23;25212;-67
2023/03/27 02:09:33;;;;;;;33.90;14.77;;;;;;;-147.16;78.97;76161.25;5063202;23;20223;-69
2023/03/27 02:12:22;;;;;;;36.70;15.07;;;;;;;-147.16;79.72;76173.41;5014420;23;24936;-68
2023/03/27 02:14:54;;;;;;;33.20;14.93;;;;;;;-147.16;79.65;76177.44;5061583;23;21042;-69
2023/03/27 02:17:24;;;;;;;31.67;15.20;;;;;;;-147.16;79.62;76181.50;5051506;23;20952;-70
2023/03/27 02:19:55;;;;;;;31.77;14.70;;;;;;;-147.16;79.74;76179.47;5042950;23;20207;-68
2023/03/27 02:22:21;;;;;;;36.10;15.27;;;;;;;-147.16;79.95;76181.50;5056052;23;21259;-69
2023/03/27 02:25:20;;;;;;;31.10;14.60;;;;;;;-147.16;79.51;76177.44;5051500;23;20254;-68
2023/03/27 02:27:47;;;;;;;32.20;14.10;;;;;;;-147.16;79.68;76177.44;5050662;23;20310;-68
2023/03/27 02:30:30;;;;;;;35.33;14.57;;;;;;;-147.16;79.70;76179.47;5048034;23;23330;-67
2023/03/27 02:33:22;;;;;;;30.90;14.80;;;;;;;-147.16;79.33;76181.50;5055808;23;20963;-67
2023/03/27 02:36:04;;;;;;;40.20;15.10;;;;;;;-147.16;79.18;76191.63;5061709;23;20304;-68
2023/03/27 02:38:44;;;;;;;37.73;15.67;;;;;;;-147.16;79.00;76205.78;5050656;23;20272;-66
2023/03/27 02:41:33;;;;;;;36.17;15.77;;;;;;;-147.16;79.22;76213.88;5049203;23;20217;-68
2023/03/27 02:44:28;;;;;;;29.87;14.97;;;;;;;-147.16;79.71;76215.91;5079374;23;20212;-67
2023/03/27 02:47:23;;;;;;;36.33;15.60;;;;;;;-147.16;79.74;76217.94;5047031;23;21705;-69
2023/03/27 02:49:53;;;;;;;36.00;15.77;;;;;;;-147.16;79.58;76230.09;5027229;23;20254;-67
2023/03/27 02:52:25;;;;;;;34.20;15.67;;;;;;;-147.16;79.68;76228.06;5019371;23;20607;-67
2023/03/27 02:54:55;;;;;;;35.17;16.27;;;;;;;-147.16;79.48;76234.13;5053943;23;21785;-67
2023/03/27 02:57:25;;;;;;;33.67;15.40;;;;;;;-147.16;79.75;76222.00;5015849;23;20220;-70
2023/03/27 02:59:55;;;;;;;33.43;14.47;;;;;;;-147.16;79.73;76222.00;5044739;23;20213;-67
2023/03/27 03:02:29;;;;;;;41.57;16.57;;;;;;;-147.16;79.89;76246.28;5043037;23;20314;-67
2023/03/27 03:05:00;;;;;;;36.07;15.33;;;;;;;-147.16;80.12;76244.25;5043558;23;21018;-67
2023/03/27 03:07:28;;;;;;;36.30;15.50;;;;;;;-147.16;80.35;76242.22;5059120;23;20203;-68
2023/03/27 03:09:54;;;;;;;36.90;15.90;;;;;;;-147.16;79.78;76246.28;5043055;23;20312;-68
2023/03/27 03:12:21;;;;;;;36.57;15.43;;;;;;;-147.16;79.40;76252.34;5019825;23;20774;-69
2023/03/27 03:14:48;;;;;;;42.23;17.70;;;;;;;-147.16;79.67;76258.41;5035349;23;20214;-68
2023/03/27 03:17:16;;;;;;;49.17;17.80;;;;;;;-147.16;79.72;76268.53;5057878;23;20259;-66
2023/03/27 03:19:42;;;;;;;44.90;19.00;;;;;;;-147.16;79.76;76280.69;5032467;23;20263;-70
2023/03/27 03:22:09;;;;;;;43.27;18.23;;;;;;;-147.16;79.63;76290.81;5015817;23;20244;-68
2023/03/27 03:24:36;;;;;;;43.70;18.53;;;;;;;-147.16;80.14;76288.78;5030802;23;20279;-67
2023/03/27 03:27:03;;;;;;;35.37;15.97;;;;;;;-147.16;80.47;76278.66;5017863;23;21906;-68
2023/03/27 03:29:34;;;;;;;34.67;15.93;;;;;;;-147.16;80.40;76286.75;5055179;23;20373;-68
2023/03/27 03:32:01;;;;;;;33.10;16.47;;;;;;;-147.16;81.13;76282.72;5052546;23;22946;-66
2023/03/27 03:34:29;;;;;;;34.83;15.23;;;;;;;-147.16;81.05;76272.59;5068895;23;21600;-68
2023/03/27 03:36:55;;;;;;;33.97;15.60;;;;;;;-147.16;80.90;76286.75;5028433;23;20276;-68
2023/03/27 03:39:22;;;;;;;36.47;16.07;;;;;;;-147.16;81.21;76280.69;5036943;23;20464;-70
2023/03/27 03:41:48;;;;;;;36.87;16.03;;;;;;;-147.16;81.27;76284.75;5052320;23;20680;-68
2023/03/27 03:44:15;;;;;;;35.03;16.40;;;;;;;-147.16;81.40;76290.81;5048475;23;25366;-67
2023/03/27 03:46:42;;;;;;;33.83;15.33;;;;;;;-147.16;81.75;76278.66;5041633;23;21232;-67
2023/03/27 03:49:08;;;;;;;39.33;16.90;;;;;;;-147.16;81.15;76282.72;5082493;23;20624;-71
2023/03/27 03:51:35;;;;;;;35.30;16.20;;;;;;;-147.16;81.38;76278.66;5068614;23;20207;-68
2023/03/27 03:54:07;;;;;;;37.80;16.43;;;;;;;-147.16;81.50;76270.56;5073664;23;20333;-66
2023/03/27 03:56:35;;;;;;;37.80;17.20;;;;;;;-147.16;81.61;76266.53;5071724;23;25710;-67
2023/03/27 03:59:03;;;;;;;37.50;17.23;;;;;;;-147.16;81.57;76264.50;5067913;23;20249;-67
2023/03/27 04:01:29;;;;;;;44.57;17.07;;;;;;;-147.16;81.29;76248.31;5073444;23;20206;-68
2023/03/27 04:03:56;;;;;;;43.47;18.00;;;;;;;-147.16;81.18;76242.22;5075627;23;20966;-69
2023/03/27 04:06:24;;;;;;;42.70;17.37;;;;;;;-147.16;81.52;76242.22;5034902;23;20324;-68
2023/03/27 04:08:51;;;;;;;46.57;17.47;;;;;;;-147.16;81.49;76244.25;5070616;23;21101;-69
2023/03/27 04:11:18;;;;;;;51.97;17.37;;;;;;;-147.16;81.51;76230.09;5070592;23;20213;-68
2023/03/27 04:13:45;;;;;;;63.43;18.57;;;;;;;-147.16;81.33;76238.19;5068816;23;20210;-66
2023/03/27 04:16:11;;;;;;;39.10;17.40;;;;;;;-147.16;81.39;76240.22;5071093;23;20697;-71
2023/03/27 04:18:39;;;;;;;44.23;17.50;;;;;;;-147.16;81.32;76240.22;5056600;23;20267;-67
2023/03/27 04:21:14;;;;;;;39.27;15.80;;;;;;;-147.16;81.51;76219.97;5078223;23;20211;-67
2023/03/27 04:23:41;;;;;;;38.87;16.93;;;;;;;-147.16;81.17;76224.00;5069832;23;20203;-68
2023/03/27 04:26:10;;;;;;;48.83;20.23;;;;;;;-147.16;81.15;76226.03;5033492;23;20297;-68
2023/03/27 04:28:38;;;;;;;36.83;17.53;;;;;;;-147.16;81.52;76224.00;5075929;23;21214;-68
2023/03/27 04:31:06;;;;;;;31.87;15.50;;;;;;;-147.16;80.98;76207.81;5071869;23;20211;-67
2023/03/27 04:33:33;;;;;;;37.70;17.10;;;;;;;-147.16;81.03;76199.72;5069325;23;20301;-67
2023/03/27 04:36:01;;;;;;;35.90;15.80;;;;;;;-147.16;80.60;76205.78;5054287;23;20325;-67
2023/03/27 04:38:38;;;;;;;32.67;15.70;;;;;;;-147.16;81.08;76205.78;5068366;23;20217;-68
2023/03/27 04:41:04;;;;;;;29.57;15.10;;;;;;;-147.16;81.12;76197.69;5076674;23;20304;-68
2023/03/27 04:43:35;;;;;;;36.97;15.50;;;;;;;-147.16;81.04;76197.69;5071365;23;21314;-68
2023/03/27 04:46:05;;;;;;;38.60;16.37;;;;;;;-147.16;80.88;76217.94;5066660;23;21754;-65
2023/03/27 04:48:33;;;;;;;35.33;16.10;;;;;;;-147.16;81.40;76236.16;5066201;23;20637;-67
2023/03/27 04:50:59;;;;;;;36.77;15.50;;;;;;;-147.16;81.19;76228.06;5030986;23;20208;-68
2023/03/27 04:53:29;;;;;;;32.80;15.33;;;;;;;-147.16;81.41;76230.09;5022986;23;20956;-67
2023/03/27 04:55:56;;;;;;;33.93;15.90;;;;;;;-147.16;81.56;76238.19;5059584;23;20282;-66
2023/03/27 04:58:24;;;;;;;34.17;15.47;;;;;;;-147.16;81.45;76230.09;5066699;23;20752;-68
2023/03/27 05:00:54;;;;;;;33.30;16.17;;;;;;;-147.16;81.23;76234.13;5059019;23;21982;-68
2023/03/27 05:03:26;;;;;;;32.13;15.47;;;;;;;-147.16;81.49;76242.22;5058498;23;20201;-68
2023/03/27 05:05:53;;;;;;;33.63;15.10;;;;;;;-147.16;81.78;76234.13;5045214;23;22566;-68
2023/03/27 05:08:20;;;;;;;29.67;14.43;;;;;;;-147.16;81.75;76224.00;5067495;23;20207;-69
2023/03/27 05:10:47;;;;;;;31.53;15.77;;;;;;;-147.16;81.55;76215.91;5044832;23;20729;-68
2023/03/27 05:13:13;;;;;;;36.40;16.73;;;;;;;-147.16;81.70;76205.78;5053165;23;21146;-68
2023/03/27 05:15:40;;;;;;;27.30;14.50;;;;;;;-147.16;81.62;76205.78;5057073;23;21780;-70
2023/03/27 05:18:07;;;;;;;29.67;16.20;;;;;;;-147.16;81.90;76193.66;5039324;23;22946;-67
2023/03/27 05:20:35;;;;;;;28.33;14.37;;;;;;;-147.16;81.21;76187.56;5047349;23;21604;-66
2023/03/27 05:23:03;;;;;;;32.83;15.70;;;;;;;-147.16;81.17;76195.66;5058069;23;20286;-68
2023/03/27 05:25:31;;;;;;;28.43;14.43;;;;;;;-147.16;81.22;76183.53;5042184;23;22081;-67
2023/03/27 05:27:59;;;;;;;30.37;14.67;;;;;;;-147.16;81.43;76191.63;5059007;23;20209;-68
2023/03/27 05:30:27;;;;;;;33.80;15.27;;;;;;;-147.16;81.77;76175.44;5067542;23;20268;-67
2023/03/27 05:32:57;;;;;;;39.53;16.67;;;;;;;-147.16;81.58;76167.34;5044237;23;23735;-65
2023/03/27 05:35:26;;;;;;;27.50;13.77;;;;;;;-147.16;81.43;76132.91;5048766;23;22825;-69
2023/03/27 05:37:54;;;;;;;30.03;14.47;;;;;;;-147.16;80.53;76098.50;5044098;23;20277;-68
2023/03/27 05:40:26;;;;;;;28.90;13.50;;;;;;;-147.16;80.61;76090.41;5047588;23;20206;-70
2023/03/27 05:42:54;;;;;;;29.37;13.10;;;;;;;-147.16;79.71;76076.25;5037707;23;20275;-67
2023/03/27 05:45:22;;;;;;;26.70;14.23;;;;;;;-147.16;79.44;76074.22;5024553;23;22133;-67
2023/03/27 05:47:50;;;;;;;29.20;14.60;;;;;;;-147.16;79.18;76088.38;5058741;23;20578;-68
2023/03/27 05:50:19;;;;;;;26.23;13.57;;;;;;;-147.16;78.80;76092.44;5048641;23;20208;-67
2023/03/27 05:52:46;;;;;;;32.87;14.37;;;;;;;-147.16;78.40;76104.56;5026627;23;20209;-68
2023/03/27 05:55:16;;;;;;;36.90;14.50;;;;;;;-147.16;78.68;76108.63;5044730;23;20205;-68
2023/03/27 05:57:43;;;;;;;27.13;14.03;;;;;;;-147.16;78.62;76104.56;5040039;23;21289;-67
2023/03/27 06:00:15;;;;;;;28.40;13.13;;;;;;;-147.16;78.43;76120.78;5052188;23;21807;-67
2023/03/27 06:02:43;;;;;;;25.57;12.67;;;;;;;-147.16;77.93;76128.88;5037373;23;20248;-66
2023/03/27 06:05:15;;;;;;;30.07;12.07;;;;;;;-147.16;78.70;76145.06;5047274;23;20207;-66
2023/03/27 06:07:42;;;;;;;26.33;12.57;;;;;;;-147.16;78.66;76134.94;5053597;23;20272;-65
2023/03/27 06:10:11;;;;;;;22.13;11.47;;;;;;;-147.16;78.58;76128.88;5051569;23;22984;-65
2023/03/27 06:12:40;;;;;;;23.93;11.47;;;;;;;-147.16;78.18;76124.81;5046541;23;20268;-68
2023/03/27 06:15:08;;;;;;;25.20;10.37;;;;;;;-147.16;78.00;76128.88;5040784;23;20205;-69
2023/03/27 06:17:38;;;;;;;20.87;9.70;;;;;;;-147.16;77.47;76120.78;5038154;23;20205;-67
2023/03/27 06:20:10;;;;;;;23.43;9.23;;;;;;;-147.16;76.21;76100.53;5020773;23;20209;-64
2023/03/27 06:22:45;;;;;;;17.97;8.57;;;;;;;-147.16;75.28;76128.88;5036043;23;20256;-66
2023/03/27 06:25:13;;;;;;;23.83;8.10;;;;;;;-147.16;75.64;76106.59;5023579;23;22735;-67
2023/03/27 06:27:44;;;;;;;20.50;7.63;;;;;;;-147.16;74.22;76100.53;5046712;23;20218;-66
2023/03/27 06:30:12;;;;;;;24.23;8.30;;;;;;;-147.16;74.03;76112.69;5035043;23;20208;-65
2023/03/27 06:32:46;;;;;;;38.63;8.20;;;;;;;-147.16;73.50;76122.78;5035825;23;20227;-64
2023/03/27 06:35:13;;;;;;;19.17;7.87;;;;;;;-147.16;73.33;76120.78;5025769;23;20311;-66
2023/03/27 06:37:41;;;;;;;21.43;8.00;;;;;;;-147.16;72.44;76126.84;5040526;23;20208;-65
2023/03/27 06:40:09;;;;;;;16.87;7.30;;;;;;;-147.16;72.27;76110.66;5045372;23;20204;-67
2023/03/27 06:42:37;;;;;;;21.10;7.63;;;;;;;-147.16;71.33;76104.56;5012302;23;22011;-66
2023/03/27 06:45:04;;;;;;;17.80;7.60;;;;;;;-147.16;71.64;76090.41;5056522;23;20204;-64
2023/03/27 06:47:31;;;;;;;20.30;8.03;;;;;;;-147.16;71.07;76064.09;5035240;23;22238;-68
2023/03/27 06:50:06;;;;;;;19.57;7.13;;;;;;;-147.16;70.19;76051.94;5046577;23;20646;-68
2023/03/27 06:52:33;;;;;;;16.53;6.13;;;;;;;-147.16;68.71;76064.09;5019222;23;20400;-63
2023/03/27 06:54:59;;;;;;;20.13;5.53;;;;;;;-147.16;67.09;76060.03;5043249;23;21231;-62
2023/03/27 06:57:26;;;;;;;14.90;5.00;;;;;;;-147.16;66.60;76043.84;5058401;23;20587;-65
2023/03/27 06:59:52;;;;;;;16.23;5.00;;;;;;;-147.16;65.69;76019.56;5054723;23;20428;-66
2023/03/27 07:02:19;;;;;;;14.47;4.07;;;;;;;-147.16;62.84;76015.50;5038087;23;20610;-70
2023/03/27 07:04:45;;;;;;;15.97;4.90;;;;;;;-147.16;62.86;75995.28;5047944;23;20207;-65
2023/03/27 07:07:30;;;;;;;19.50;4.43;;;;;;;-147.16;61.60;75999.31;5047378;23;21438;-66
2023/03/27 07:09:57;;;;;;;15.57;3.97;;;;;;;-147.16;61.32;75977.06;5038802;23;20622;-71
2023/03/27 07:12:25;;;;;;;16.13;4.37;;;;;;;-147.16;60.42;75932.53;5058313;23;20362;-69
2023/03/27 07:14:51;;;;;;;13.47;4.63;;;;;;;-147.16;60.30;75954.78;5060696;23;20205;-68
2023/03/27 07:17:18;;;;;;;17.50;4.87;;;;;;;-147.16;60.96;75932.53;5057707;23;21153;-70
2023/03/27 07:19:45;;;;;;;11.70;4.13;;;;;;;-147.16;59.61;75879.91;5053755;23;20212;-66
2023/03/27 07:22:14;;;;;;;10.23;3.97;;;;;;;-147.16;58.11;75837.38;5071568;23;20215;-64
2023/03/27 07:24:41;;;;;;;11.33;4.80;;;;;;;-147.16;57.96;75811.06;5077772;23;20364;-69
2023/03/27 07:27:08;;;;;;;18.63;5.20;;;;;;;-147.16;57.72;75802.97;5062677;23;20208;-64
2023/03/27 07:29:36;;;;;;;18.03;5.40;;;;;;;-147.16;57.30;75827.28;5065036;23;20206;-63
2023/03/27 07:32:04;;;;;;;16.77;4.87;;;;;;;-147.16;56.67;75855.59;5056554;23;20635;-63
2023/03/27 07:34:34;;;;;;;11.47;4.60;;;;;;;-147.16;58.25;75902.16;5068376;23;20631;-63
2023/03/27 07:37:01;;;;;;;13.87;4.67;;;;;;;-147.16;58.22;75922.41;5049274;23;20206;-63
2023/03/27 07:39:28;;;;;;;19.83;4.43;;;;;;;-147.16;58.18;75926.44;5052931;23;20431;-65
2023/03/27 07:41:54;;;;;;;9.17;3.50;;;;;;;-147.16;58.32;75952.75;5083516;23;20213;-65
2023/03/27 07:44:21;;;;;;;14.33;3.23;;;;;;;-147.16;57.78;75942.66;5089997;23;20924;-65
2023/03/27 07:46:50;;;;;;;13.90;3.40;;;;;;;-147.16;57.05;75914.31;5084572;23;20216;-65
2023/03/27 07:49:18;;;;;;;9.33;2.93;;;;;;;-147.16;55.26;75885.97;5058534;23;20212;-64
2023/03/27 07:51:45;;;;;;;10.97;3.20;;;;;;;-147.16;56.60;75922.41;5076357;23;20393;-65
2023/03/27 07:54:15;;;;;;;7.97;3.00;;;;;;;-147.16;56.24;75855.59;5069406;23;20205;-67
2023/03/27 07:56:42;;;;;;;9.73;2.90;;;;;;;-147.16;54.38;75847.50;5066830;23;20215;-66
2023/03/27 07:59:10;;;;;;;10.37;2.70;;;;;;;-147.16;54.24;75883.94;5072683;23;20629;-65
2023/03/27 08:01:37;;;;;;;9.10;2.50;;;;;;;-147.16;54.96;75879.91;5053964;23;20205;-64
2023/03/27 08:04:04;;;;;;;7.27;2.43;;;;;;;-147.16;54.71;75928.47;5048407;23;21695;-64
2023/03/27 08:06:31;;;;;;;9.57;2.80;;;;;;;-147.16;56.31;75987.19;5071408;23;20215;-66
2023/03/27 08:08:58;;;;;;;13.37;2.70;;;;;;;-147.16;56.27;75960.88;5069286;23;20323;-63
2023/03/27 08:11:28;;;;;;;11.80;3.07;;;;;;;-147.16;56.19;75908.25;5063738;23;20694;-65
2023/03/27 08:13:57;;;;;;;12.73;2.90;;;;;;;-147.16;54.53;75888.00;5053712;23;20211;-65
2023/03/27 08:16:27;;;;;;;11.83;2.40;;;;;;;-147.16;54.94;75908.25;5084917;23;20634;-64
2023/03/27 08:18:55;;;;;;;7.80;2.33;;;;;;;-147.16;54.24;75904.19;5129080;23;20631;-64
2023/03/27 08:21:22;;;;;;;8.07;2.67;;;;;;;-147.16;53.68;75865.72;5080442;23;23624;-67
2023/03/27 08:23:49;;;;;;;7.53;2.80;;;;;;;-147.16;53.50;75873.81;5079033;23;20263;-64
2023/03/27 08:26:16;;;;;;;6.43;2.23;;;;;;;-147.16;53.31;75902.16;5084685;23;21145;-67
2023/03/27 08:28:43;;;;;;;11.90;2.33;;;;;;;-147.16;54.34;75942.66;5090608;23;20303;-65
2023/03/27 08:31:14;;;;;;;7.20;2.40;;;;;;;-147.16;54.78;75964.91;5052182;23;21709;-65
2023/03/27 08:33:41;;;;;;;7.70;2.53;;;;;;;-147.16;54.26;75981.09;5059613;23;20614;-66
2023/03/27 08:36:10;;;;;;;7.63;2.30;;;;;;;-147.16;54.20;75999.31;5059024;23;20215;-64
2023/03/27 08:38:38;;;;;;;10.43;2.70;;;;;;;-147.16;54.65;75995.28;5034138;23;20228;-67
2023/03/27 08:41:05;;;;;;;8.07;2.43;;;;;;;-147.16;55.00;76019.56;5067016;23;20339;-65
2023/03/27 08:43:40;;;;;;;8.33;2.30;;;;;;;-147.16;54.93;76031.72;5038216;23;20209;-68
2023/03/27 08:46:21;;;;;;;5.23;2.10;;;;;;;-147.16;54.46;75997.28;5046240;23;20394;-66
2023/03/27 08:49:14;;;;;;;5.77;2.13;;;;;;;-147.16;54.18;75993.25;5042559;23;20207;-68
2023/03/27 08:51:48;;;;;;;9.30;2.60;;;;;;;-147.16;54.14;75962.88;5047122;23;21401;-68
2023/03/27 08:54:25;;;;;;;6.40;2.43;;;;;;;-147.16;53.42;76001.34;5051672;23;20382;-66
2023/03/27 08:56:52;;;;;;;15.07;2.73;;;;;;;-147.16;54.22;76023.63;5045838;23;20203;-67
2023/03/27 08:59:21;;;;;;;12.00;2.43;;;;;;;-147.16;55.00;76090.41;5059238;23;21589;-69
2023/03/27 09:02:00;;;;;;;5.77;1.93;;;;;;;-147.16;55.71;76116.72;5041446;23;20212;-66
2023/03/27 09:04:30;;;;;;;13.73;2.53;;;;;;;-147.16;56.08;76116.72;5037338;23;20248;-65
2023/03/27 09:07:03;;;;;;;5.20;1.90;;;;;;;-147.16;55.48;76114.69;5035181;23;20208;-67
2023/03/27 09:09:41;;;;;;;7.17;2.37;;;;;;;-147.16;55.56;76132.91;5058096;23;21717;-66
2023/03/27 09:12:25;;;;;;;6.87;2.53;;;;;;;-147.16;56.44;76157.22;5051619;23;20212;-63
2023/03/27 09:15:00;;;;;;;7.77;2.30;;;;;;;-147.16;56.51;76149.13;5056363;23;20889;-64
2023/03/27 09:17:36;;;;;;;9.23;2.80;;;;;;;-147.16;56.82;76165.31;5053400;23;20212;-68
2023/03/27 09:20:16;;;;;;;8.10;2.20;;;;;;;-147.16;57.13;76161.25;5067738;23;20216;-69
2023/03/27 09:22:46;;;;;;;6.27;2.13;;;;;;;-147.16;56.12;76141.00;5041805;23;20252;-65
2023/03/27 09:25:19;;;;;;;6.53;2.10;;;;;;;-147.16;56.16;76179.47;5050175;23;20212;-66
2023/03/27 09:27:47;;;;;;;9.53;2.47;;;;;;;-147.16;56.75;76193.66;5062279;23;20211;-68
2023/03/27 09:30:18;;;;;;;6.13;2.03;;;;;;;-147.16;56.72;76222.00;5046212;23;22155;-68
2023/03/27 09:32:50;;;;;;;8.00;2.40;;;;;;;-147.16;57.83;76203.78;5042489;23;20216;-69
2023/03/27 09:35:19;;;;;;;5.63;2.27;;;;;;;-147.16;57.07;76213.88;5054702;23;23195;-66
2023/03/27 09:37:47;;;;;;;7.70;2.57;;;;;;;-147.16;55.51;76213.88;5052322;23;20211;-66
2023/03/27 09:40:35;;;;;;;5.53;1.80;;;;;;;-147.16;55.42;76213.88;5049370;23;20228;-66
2023/03/27 09:43:26;;;;;;;14.33;2.73;;;;;;;-147.16;55.28;76250.31;5035615;23;21620;-66
2023/03/27 09:45:53;;;;;;;6.77;2.20;;;;;;;-147.16;55.64;76232.09;5035842;23;20690;-68
2023/03/27 09:48:26;;;;;;;6.50;2.27;;;;;;;-147.16;55.08;76213.88;5055461;23;20503;-65
2023/03/27 09:50:52;;;;;;;5.27;1.77;;;;;;;-147.16;54.31;76209.84;5076872;23;20204;-67
2023/03/27 09:53:21;;;;;;;7.67;1.67;;;;;;;-147.16;53.51;76181.50;5043116;23;20371;-69
2023/03/27 09:55:55;;;;;;;10.07;2.03;;;;;;;-147.16;51.89;76197.69;5039246;23;20739;-66
2023/03/27 09:58:34;;;;;;;4.13;1.50;;;;;;;-147.16;52.59;76201.75;5058273;23;21584;-69
2023/03/27 10:01:34;;;;;;;7.83;2.00;;;;;;;-147.16;51.87;76199.72;5051609;23;20283;-66
2023/03/27 10:04:11;;;;;;;8.33;2.10;;;;;;;-147.16;52.32;76234.13;5078607;23;20291;-65
2023/03/27 10:06:46;;;;;;;5.20;1.80;;;;;;;-147.16;52.26;76213.88;5057563;23;25416;-63
2023/03/27 10:09:25;;;;;;;4.07;2.00;;;;;;;-147.16;52.04;76222.00;5073986;23;20283;-63
2023/03/27 10:12:04;;;;;;;3.43;1.80;;;;;;;-147.16;51.96;76217.94;5058696;23;20212;-66
2023/03/27 10:14:33;;;;;;;7.80;1.87;;;;;;;-147.16;51.43;76230.09;5050029;23;21611;-68
2023/03/27 10:17:01;;;;;;;7.23;2.00;;;;;;;-147.16;51.89;76256.41;5051828;23;20204;-67
2023/03/27 10:19:32;;;;;;;6.03;2.10;;;;;;;-147.16;52.31;76242.22;5044698;23;20278;-65
2023/03/27 10:22:18;;;;;;;11.97;2.03;;;;;;;-147.16;52.06;76213.88;5051607;23;20209;-67
2023/03/27 10:24:46;;;;;;;6.60;1.93;;;;;;;-147.16;51.81;76230.09;5055944;23;20204;-63
2023/03/27 10:27:19;;;;;;;10.77;2.10;;;;;;;-147.16;51.32;76222.00;5061028;23;20239;-61
2023/03/27 10:29:46;;;;;;;8.37;2.20;;;;;;;-147.16;49.78;76228.06;5060403;23;20232;-66
2023/03/27 10:32:13;;;;;;;7.67;1.83;;;;;;;-147.16;50.24;76238.19;5057983;23;20220;-64
2023/03/27 10:34:50;;;;;;;3.37;1.67;;;;;;;-147.16;50.37;76246.28;5095116;23;21204;-68
2023/03/27 10:37:19;;;;;;;5.43;1.70;;;;;;;-147.16;49.66;76250.31;5035904;23;20208;-67
2023/03/27 10:39:46;;;;;;;4.57;1.63;;;;;;;-147.16;49.06;76240.22;5061526;23;20944;-66
2023/03/27 10:42:14;;;;;;;6.60;1.63;;;;;;;-147.16;49.02;76228.06;5047133;23;20251;-64
2023/03/27 10:44:42;;;;;;;9.47;2.40;;;;;;;-147.16;48.87;76215.91;5040934;23;20302;-67
2023/03/27 13:17:41;;;;;;;2.73;1.60;;;;;;;-147.16;42.89;76177.44;6041045;23;20194;-65
2023/03/27 13:20:44;;;;;;;2.67;1.40;;;;;;;-147.16;43.13;76175.44;5049869;23;20260;-66
2023/03/27 13:23:28;;;;;;;3.67;1.83;;;;;;;-147.16;43.15;76165.31;5020940;23;21332;-61
2023/03/27 13:26:17;;;;;;;2.80;1.60;;;;;;;-147.16;43.18;76167.34;5044966;23;20211;-66
2023/03/27 13:28:49;;;;;;;6.10;1.67;;;;;;;-147.16;43.62;76226.03;5048782;23;20208;-62
2023/03/27 13:31:44;;;;;;;3.10;1.50;;;;;;;-147.16;45.26;76246.28;5029809;23;20209;-65
2023/03/27 13:34:26;;;;;;;3.87;1.50;;;;;;;-147.16;45.42;76250.31;5045105;23;20238;-65
2023/03/27 13:36:58;;;;;;;5.33;1.73;;;;;;;-147.16;45.69;76254.38;5045360;23;21729;-64
2023/03/27 13:40:00;;;;;;;9.93;1.80;;;;;;;-147.16;45.95;76270.56;5036016;23;20211;-66
2023/03/27 13:42:33;;;;;;;2.53;1.40;;;;;;;-147.16;46.63;76258.41;5054984;23;20204;-65
2023/03/27 13:45:13;;;;;;;4.00;1.90;;;;;;;-147.16;46.06;76270.56;5048250;23;21281;-65
2023/03/27 13:48:07;;;;;;;2.10;1.60;;;;;;;-147.16;46.04;76282.72;5061254;23;20303;-66
2023/03/27 13:51:00;;;;;;;12.80;5.00;;;;;;;-147.16;50.08;76282.72;5059208;23;20378;-54
2023/03/27 13:53:43;;;;;;;4.13;1.53;;;;;;;-147.16;47.49;76323.19;5039250;23;23615;-67
2023/03/27 13:56:24;;;;;;;3.07;1.50;;;;;;;-147.16;46.95;76351.53;5058772;23;20204;-66
2023/03/27 13:59:27;;;;;;;2.77;1.17;;;;;;;-147.16;48.40;76365.72;5041615;23;20618;-65